createdAt,value
2022-12-18T00:00:52.609Z,-6.21
2022-12-18T00:01:52.657Z,-6.20
2022-12-18T00:02:52.703Z,-6.20
2022-12-18T00:03:52.717Z,-6.16
2022-12-18T00:04:52.694Z,-6.18
2022-12-18T00:05:52.558Z,-6.23
2022-12-18T00:06:52.543Z,-6.28
2022-12-18T00:07:52.579Z,-6.24
2022-12-18T00:08:52.518Z,-6.28
2022-12-18T00:09:52.517Z,-6.26
2022-12-18T00:10:52.504Z,-6.33
2022-12-18T00:11:52.507Z,-6.34
2022-12-18T00:12:52.487Z,-6.31
2022-12-18T00:13:52.469Z,-6.33
2022-12-18T00:14:52.474Z,-6.33
2022-12-18T00:15:52.538Z,-6.31
2022-12-18T00:16:52.445Z,-6.31
2022-12-18T00:17:52.435Z,-6.33
2022-12-18T00:18:52.416Z,-6.38
2022-12-18T00:19:52.423Z,-6.41
2022-12-18T00:20:52.409Z,-6.39
2022-12-18T00:21:52.397Z,-6.41
2022-12-18T00:22:52.382Z,-6.41
2022-12-18T00:23:52.385Z,-6.34
2022-12-18T00:24:52.367Z,-6.41
2022-12-18T00:25:52.359Z,-6.39
2022-12-18T00:26:52.353Z,-6.39
2022-12-18T00:27:52.332Z,-6.38
2022-12-18T00:28:52.333Z,-6.42
2022-12-18T00:29:52.323Z,-6.39
2022-12-18T00:30:52.303Z,-6.42
2022-12-18T00:31:52.380Z,-6.42
2022-12-18T00:32:52.287Z,-6.39
2022-12-18T00:33:55.385Z,-6.45
2022-12-18T00:34:52.275Z,-6.48
2022-12-18T00:35:52.261Z,-6.51
2022-12-18T00:36:52.267Z,-6.54
2022-12-18T00:37:52.287Z,-6.52
2022-12-18T00:38:52.227Z,-6.48
2022-12-18T00:39:52.265Z,-6.49
2022-12-18T00:40:52.221Z,-6.52
2022-12-18T00:41:52.220Z,-6.54
2022-12-18T00:42:52.240Z,-6.56
2022-12-18T00:43:52.193Z,-6.52
2022-12-18T00:44:52.168Z,-6.58
2022-12-18T00:45:52.230Z,-6.58
2022-12-18T00:46:52.157Z,-6.58
2022-12-18T00:47:52.147Z,-6.56
2022-12-18T00:48:52.138Z,-6.58
2022-12-18T00:49:52.130Z,-6.60
2022-12-18T00:50:52.125Z,-6.61
2022-12-18T00:51:52.118Z,-6.56
2022-12-18T00:52:52.105Z,-6.60
2022-12-18T00:53:52.096Z,-6.56
2022-12-18T00:54:52.094Z,-6.58
2022-12-18T00:55:52.136Z,-6.61
2022-12-18T00:56:52.057Z,-6.64
2022-12-18T00:57:52.049Z,-6.63
2022-12-18T00:58:52.033Z,-6.64
2022-12-18T00:59:52.076Z,-6.67
2022-12-18T01:00:52.112Z,-6.66
2022-12-18T01:01:52.211Z,-6.71
2022-12-18T01:02:52.114Z,-6.68
2022-12-18T01:03:51.997Z,-6.70
2022-12-18T01:04:52.007Z,-6.73
2022-12-18T01:05:51.976Z,-6.73
2022-12-18T01:06:52.011Z,-6.71
2022-12-18T01:07:52.013Z,-6.76
2022-12-18T01:08:52.901Z,-6.81
2022-12-18T01:09:51.972Z,-6.82
2022-12-18T01:10:51.942Z,-6.81
2022-12-18T01:11:51.932Z,-6.81
2022-12-18T01:12:51.908Z,-6.76
2022-12-18T01:13:51.892Z,-6.76
2022-12-18T01:14:51.901Z,-6.81
2022-12-18T01:15:51.902Z,-6.82
2022-12-18T01:16:51.884Z,-6.82
2022-12-18T01:17:51.852Z,-6.82
2022-12-18T01:18:51.840Z,-6.84
2022-12-18T01:19:51.832Z,-6.85
2022-12-18T01:20:51.820Z,-6.85
2022-12-18T01:21:51.820Z,-6.86
2022-12-18T01:22:51.799Z,-6.85
2022-12-18T01:23:51.819Z,-6.86
2022-12-18T01:24:51.778Z,-6.86
2022-12-18T01:25:51.784Z,-6.88
2022-12-18T01:26:51.767Z,-6.89
2022-12-18T01:27:51.785Z,-6.92
2022-12-18T01:28:51.870Z,-6.92
2022-12-18T01:29:51.874Z,-6.95
2022-12-18T01:30:51.725Z,-6.95
2022-12-18T01:31:51.892Z,-6.96
2022-12-18T01:32:51.710Z,-6.96
2022-12-18T01:33:51.711Z,-6.96
2022-12-18T01:34:51.709Z,-6.97
2022-12-18T01:35:51.713Z,-6.96
2022-12-18T01:36:51.677Z,-6.99
2022-12-18T01:37:51.655Z,-6.99
2022-12-18T01:38:51.678Z,-6.99
2022-12-18T01:39:51.675Z,-6.99
2022-12-18T01:40:51.654Z,-7.05
2022-12-18T01:41:51.627Z,-7.00
2022-12-18T01:42:51.603Z,-7.06
2022-12-18T01:43:51.594Z,-7.05
2022-12-18T01:44:51.592Z,-7.06
2022-12-18T01:45:51.608Z,-7.02
2022-12-18T01:46:51.570Z,-7.03
2022-12-18T01:47:51.562Z,-7.03
2022-12-18T01:48:51.572Z,-7.07
2022-12-18T01:49:51.542Z,-7.05
2022-12-18T01:50:51.645Z,-7.10
2022-12-18T01:51:51.541Z,-7.10
2022-12-18T01:52:51.516Z,-7.13
2022-12-18T01:53:51.503Z,-7.13
2022-12-18T01:54:51.509Z,-7.13
2022-12-18T01:55:51.480Z,-7.09
2022-12-18T01:56:51.471Z,-7.10
2022-12-18T01:57:51.505Z,-7.10
2022-12-18T01:58:51.460Z,-7.10
2022-12-18T01:59:51.439Z,-7.10
2022-12-18T02:00:51.464Z,-7.13
2022-12-18T02:01:51.497Z,-7.14
2022-12-18T02:02:51.519Z,-7.17
2022-12-18T02:03:51.399Z,-7.18
2022-12-18T02:04:51.398Z,-7.18
2022-12-18T02:05:51.378Z,-7.20
2022-12-18T02:06:51.377Z,-7.17
2022-12-18T02:07:51.367Z,-7.21
2022-12-18T02:08:51.347Z,-7.24
2022-12-18T02:09:51.337Z,-7.21
2022-12-18T02:10:51.337Z,-7.24
2022-12-18T02:11:51.333Z,-7.25
2022-12-18T02:12:51.308Z,-7.23
2022-12-18T02:13:51.308Z,-7.20
2022-12-18T02:14:51.285Z,-7.24
2022-12-18T02:15:51.297Z,-7.28
2022-12-18T02:16:51.327Z,-7.28
2022-12-18T02:17:51.294Z,-7.28
2022-12-18T02:18:51.285Z,-7.30
2022-12-18T02:19:51.256Z,-7.35
2022-12-18T02:20:51.274Z,-7.30
2022-12-18T02:21:51.234Z,-7.27
2022-12-18T02:22:51.267Z,-7.28
2022-12-18T02:23:51.210Z,-7.32
2022-12-18T02:24:51.184Z,-7.32
2022-12-18T02:25:51.182Z,-7.34
2022-12-18T02:26:51.187Z,-7.30
2022-12-18T02:27:51.163Z,-7.30
2022-12-18T02:28:51.148Z,-7.30
2022-12-18T02:29:57.672Z,-7.34
2022-12-18T02:30:52.190Z,-7.32
2022-12-18T02:31:51.143Z,-7.30
2022-12-18T02:32:51.110Z,-7.34
2022-12-18T02:33:51.101Z,-7.30
2022-12-18T02:34:51.089Z,-7.35
2022-12-18T02:35:51.134Z,-7.35
2022-12-18T02:36:51.080Z,-7.36
2022-12-18T02:37:51.070Z,-7.32
2022-12-18T02:38:51.051Z,-7.35
2022-12-18T02:39:51.047Z,-7.30
2022-12-18T02:40:51.038Z,-7.36
2022-12-18T02:41:51.047Z,-7.36
2022-12-18T02:42:51.029Z,-7.38
2022-12-18T02:43:51.007Z,-7.41
2022-12-18T02:44:51.006Z,-7.41
2022-12-18T02:45:51.053Z,-7.39
2022-12-18T02:46:50.967Z,-7.39
2022-12-18T02:47:50.971Z,-7.41
2022-12-18T02:48:50.984Z,-7.42
2022-12-18T02:49:50.947Z,-7.42
2022-12-18T02:50:50.947Z,-7.45
2022-12-18T02:51:50.930Z,-7.44
2022-12-18T02:52:50.923Z,-7.45
2022-12-18T02:53:50.945Z,-7.45
2022-12-18T02:54:51.467Z,-7.48
2022-12-18T02:55:50.885Z,-7.46
2022-12-18T02:56:50.899Z,-7.44
2022-12-18T02:57:50.867Z,-7.50
2022-12-18T02:58:50.862Z,-7.50
2022-12-18T02:59:50.849Z,-7.46
2022-12-18T03:00:50.859Z,-7.52
2022-12-18T03:01:50.996Z,-7.52
2022-12-18T03:02:50.962Z,-7.50
2022-12-18T03:03:50.810Z,-7.52
2022-12-18T03:04:50.802Z,-7.53
2022-12-18T03:05:50.794Z,-7.55
2022-12-18T03:06:50.783Z,-7.53
2022-12-18T03:07:50.805Z,-7.53
2022-12-18T03:08:50.790Z,-7.53
2022-12-18T03:09:50.774Z,-7.55
2022-12-18T03:10:50.742Z,-7.56
2022-12-18T03:11:50.722Z,-7.56
2022-12-18T03:12:50.727Z,-7.60
2022-12-18T03:13:50.731Z,-7.59
2022-12-18T03:14:50.700Z,-7.63
2022-12-18T03:15:50.689Z,-7.57
2022-12-18T03:16:50.736Z,-7.57
2022-12-18T03:17:50.677Z,-7.59
2022-12-18T03:18:50.672Z,-7.59
2022-12-18T03:19:50.655Z,-7.59
2022-12-18T03:20:50.645Z,-7.60
2022-12-18T03:21:50.629Z,-7.59
2022-12-18T03:22:50.628Z,-7.62
2022-12-18T03:23:50.610Z,-7.62
2022-12-18T03:24:50.641Z,-7.60
2022-12-18T03:25:50.597Z,-7.59
2022-12-18T03:26:50.589Z,-7.60
2022-12-18T03:27:50.576Z,-7.62
2022-12-18T03:28:50.567Z,-7.63
2022-12-18T03:29:50.546Z,-7.62
2022-12-18T03:30:50.611Z,-7.63
2022-12-18T03:31:50.527Z,-7.64
2022-12-18T03:32:50.537Z,-7.70
2022-12-18T03:33:50.526Z,-7.67
2022-12-18T03:34:50.504Z,-7.71
2022-12-18T03:35:50.523Z,-7.73
2022-12-18T03:36:50.485Z,-7.73
2022-12-18T03:37:50.474Z,-7.67
2022-12-18T03:38:50.470Z,-7.75
2022-12-18T03:39:50.455Z,-7.73
2022-12-18T03:40:50.445Z,-7.73
2022-12-18T03:41:50.442Z,-7.74
2022-12-18T03:42:50.435Z,-7.75
2022-12-18T03:43:50.416Z,-7.73
2022-12-18T03:44:50.402Z,-7.71
2022-12-18T03:45:50.443Z,-7.73
2022-12-18T03:46:50.404Z,-7.77
2022-12-18T03:47:50.393Z,-7.75
2022-12-18T03:48:50.370Z,-7.78
2022-12-18T03:49:50.353Z,-7.80
2022-12-18T03:50:50.389Z,-7.77
2022-12-18T03:51:50.340Z,-7.75
2022-12-18T03:52:50.341Z,-7.75
2022-12-18T03:53:50.317Z,-7.77
2022-12-18T03:54:50.316Z,-7.77
2022-12-18T03:55:50.326Z,-7.78
2022-12-18T03:56:50.293Z,-7.80
2022-12-18T03:57:50.279Z,-7.83
2022-12-18T03:58:50.269Z,-7.81
2022-12-18T03:59:50.260Z,-7.80
2022-12-18T04:00:50.259Z,-7.80
2022-12-18T04:01:50.443Z,-7.83
2022-12-18T04:02:50.274Z,-7.83
2022-12-18T04:03:50.313Z,-7.84
2022-12-18T04:04:50.216Z,-7.85
2022-12-18T04:05:50.199Z,-7.89
2022-12-18T04:06:50.193Z,-7.89
2022-12-18T04:07:50.219Z,-7.88
2022-12-18T04:08:50.186Z,-7.89
2022-12-18T04:09:50.155Z,-7.89
2022-12-18T04:10:50.148Z,-7.88
2022-12-18T04:11:50.153Z,-7.89
2022-12-18T04:12:50.172Z,-7.89
2022-12-18T04:13:50.134Z,-7.92
2022-12-18T04:14:50.115Z,-7.96
2022-12-18T04:15:50.171Z,-7.91
2022-12-18T04:16:50.094Z,-7.92
2022-12-18T04:17:50.112Z,-7.92
2022-12-18T04:18:50.104Z,-7.96
2022-12-18T04:19:50.073Z,-7.92
2022-12-18T04:20:50.053Z,-7.96
2022-12-18T04:21:50.052Z,-7.92
2022-12-18T04:22:50.039Z,-7.95
2022-12-18T04:23:50.022Z,-7.94
2022-12-18T04:24:50.019Z,-7.95
2022-12-18T04:25:50.023Z,-7.98
2022-12-18T04:26:49.995Z,-7.98
2022-12-18T04:27:50.001Z,-7.96
2022-12-18T04:28:49.983Z,-7.94
2022-12-18T04:29:49.973Z,-7.96
2022-12-18T04:30:50.022Z,-7.98
2022-12-18T04:31:49.949Z,-7.92
2022-12-18T04:32:52.301Z,-7.98
2022-12-18T04:33:49.933Z,-7.98
2022-12-18T04:34:49.920Z,-7.99
2022-12-18T04:35:49.899Z,-8.03
2022-12-18T04:36:49.899Z,-8.03
2022-12-18T04:37:49.890Z,-8.05
2022-12-18T04:38:49.880Z,-8.03
2022-12-18T04:39:49.858Z,-8.05
2022-12-18T04:40:49.866Z,-8.05
2022-12-18T04:41:49.847Z,-8.03
2022-12-18T04:42:49.860Z,-8.05
2022-12-18T04:43:49.827Z,-8.05
2022-12-18T04:44:49.822Z,-8.08
2022-12-18T04:45:49.818Z,-8.05
2022-12-18T04:46:49.851Z,-8.08
2022-12-18T04:47:49.786Z,-8.07
2022-12-18T04:48:49.836Z,-8.07
2022-12-18T04:49:49.778Z,-8.08
2022-12-18T04:50:49.778Z,-8.08
2022-12-18T04:51:49.754Z,-8.07
2022-12-18T04:52:49.738Z,-8.08
2022-12-18T04:53:49.749Z,-8.07
2022-12-18T04:54:49.724Z,-8.10
2022-12-18T04:55:49.715Z,-8.08
2022-12-18T04:56:49.711Z,-8.10
2022-12-18T04:57:49.693Z,-8.11
2022-12-18T04:58:49.686Z,-8.07
2022-12-18T04:59:49.665Z,-8.10
2022-12-18T05:00:49.662Z,-8.10
2022-12-18T05:01:49.723Z,-8.07
2022-12-18T05:02:49.702Z,-8.11
2022-12-18T05:03:49.665Z,-8.13
2022-12-18T05:04:49.643Z,-8.10
2022-12-18T05:05:49.603Z,-8.07
2022-12-18T05:06:49.613Z,-8.10
2022-12-18T05:07:49.581Z,-8.10
2022-12-18T05:08:49.601Z,-8.14
2022-12-18T05:09:49.578Z,-8.15
2022-12-18T05:10:49.578Z,-8.15
2022-12-18T05:11:49.567Z,-8.15
2022-12-18T05:12:49.549Z,-8.14
2022-12-18T05:13:49.532Z,-8.14
2022-12-18T05:14:49.539Z,-8.15
2022-12-18T05:15:49.569Z,-8.14
2022-12-18T05:16:49.548Z,-8.15
2022-12-18T05:17:49.490Z,-8.17
2022-12-18T05:18:49.488Z,-8.15
2022-12-18T05:19:49.480Z,-8.15
2022-12-18T05:20:49.467Z,-8.15
2022-12-18T05:21:49.478Z,-8.14
2022-12-18T05:22:49.482Z,-8.17
2022-12-18T05:23:49.570Z,-8.17
2022-12-18T05:24:49.436Z,-8.21
2022-12-18T05:25:49.406Z,-8.18
2022-12-18T05:26:49.416Z,-8.20
2022-12-18T05:27:49.386Z,-8.15
2022-12-18T05:28:49.395Z,-8.18
2022-12-18T05:29:49.399Z,-8.18
2022-12-18T05:30:49.423Z,-8.24
2022-12-18T05:31:49.421Z,-8.21
2022-12-18T05:32:49.396Z,-8.20
2022-12-18T05:33:49.415Z,-8.20
2022-12-18T05:34:49.384Z,-8.20
2022-12-18T05:35:49.384Z,-8.21
2022-12-18T05:36:49.356Z,-8.21
2022-12-18T05:37:49.345Z,-8.20
2022-12-18T05:38:49.361Z,-8.21
2022-12-18T05:39:49.344Z,-8.24
2022-12-18T05:40:49.323Z,-8.26
2022-12-18T05:41:49.312Z,-8.26
2022-12-18T05:42:49.302Z,-8.24
2022-12-18T05:43:49.272Z,-8.21
2022-12-18T05:44:49.282Z,-8.24
2022-12-18T05:45:49.272Z,-8.21
2022-12-18T05:46:49.318Z,-8.23
2022-12-18T05:47:49.232Z,-8.24
2022-12-18T05:48:49.215Z,-8.24
2022-12-18T05:49:49.239Z,-8.23
2022-12-18T05:50:49.200Z,-8.23
2022-12-18T05:51:49.181Z,-8.20
2022-12-18T05:52:49.201Z,-8.21
2022-12-18T05:53:49.185Z,-8.24
2022-12-18T05:54:49.158Z,-8.21
2022-12-18T05:55:49.160Z,-8.23
2022-12-18T05:56:49.194Z,-8.23
2022-12-18T05:57:49.129Z,-8.24
2022-12-18T05:58:49.128Z,-8.26
2022-12-18T05:59:49.110Z,-8.24
2022-12-18T06:00:49.098Z,-8.21
2022-12-18T06:01:49.155Z,-8.24
2022-12-18T06:02:49.169Z,-8.26
2022-12-18T06:03:49.135Z,-8.24
2022-12-18T06:04:49.128Z,-8.23
2022-12-18T06:05:49.049Z,-8.28
2022-12-18T06:06:49.046Z,-8.26
2022-12-18T06:07:49.034Z,-8.26
2022-12-18T06:08:49.016Z,-8.26
2022-12-18T06:09:49.085Z,-8.28
2022-12-18T06:10:49.005Z,-8.26
2022-12-18T06:11:49.075Z,-8.29
2022-12-18T06:12:48.985Z,-8.28
2022-12-18T06:13:49.235Z,-8.32
2022-12-18T06:14:48.964Z,-8.34
2022-12-18T06:15:48.971Z,-8.28
2022-12-18T06:16:48.943Z,-8.32
2022-12-18T06:17:48.955Z,-8.32
2022-12-18T06:18:48.952Z,-8.34
2022-12-18T06:19:48.912Z,-8.31
2022-12-18T06:20:48.892Z,-8.29
2022-12-18T06:21:48.874Z,-8.31
2022-12-18T06:22:48.872Z,-8.32
2022-12-18T06:23:48.863Z,-8.29
2022-12-18T06:24:48.859Z,-8.34
2022-12-18T06:25:48.840Z,-8.34
2022-12-18T06:26:48.833Z,-8.35
2022-12-18T06:27:49.000Z,-8.35
2022-12-18T06:28:48.848Z,-8.35
2022-12-18T06:29:48.809Z,-8.36
2022-12-18T06:30:48.790Z,-8.38
2022-12-18T06:31:48.881Z,-8.36
2022-12-18T06:32:54.616Z,-8.36
2022-12-18T06:33:49.759Z,-8.38
2022-12-18T06:34:48.781Z,-8.34
2022-12-18T06:35:48.744Z,-8.39
2022-12-18T06:36:48.739Z,-8.39
2022-12-18T06:37:48.736Z,-8.38
2022-12-18T06:38:48.714Z,-8.36
2022-12-18T06:39:48.717Z,-8.36
2022-12-18T06:40:48.700Z,-8.39
2022-12-18T06:41:48.698Z,-8.39
2022-12-18T06:42:48.682Z,-8.41
2022-12-18T06:43:48.676Z,-8.42
2022-12-18T06:44:48.694Z,-8.41
2022-12-18T06:45:48.690Z,-8.38
2022-12-18T06:46:48.659Z,-8.42
2022-12-18T06:47:48.633Z,-8.41
2022-12-18T06:48:48.623Z,-8.41
2022-12-18T06:49:48.566Z,-8.41
2022-12-18T06:50:48.614Z,-8.44
2022-12-18T06:51:48.575Z,-8.42
2022-12-18T06:52:48.536Z,-8.42
2022-12-18T06:53:48.524Z,-8.44
2022-12-18T06:54:48.522Z,-8.42
2022-12-18T06:55:48.491Z,-8.46
2022-12-18T06:56:48.507Z,-8.46
2022-12-18T06:57:48.493Z,-8.42
2022-12-18T06:58:48.548Z,-8.47
2022-12-18T06:59:48.514Z,-8.46
2022-12-18T07:00:48.527Z,-8.47
2022-12-18T07:01:48.645Z,-8.47
2022-12-18T07:02:48.571Z,-8.47
2022-12-18T07:03:48.432Z,-8.46
2022-12-18T07:04:48.416Z,-8.49
2022-12-18T07:05:48.424Z,-8.49
2022-12-18T07:06:48.414Z,-8.47
2022-12-18T07:07:48.387Z,-8.49
2022-12-18T07:08:48.389Z,-8.52
2022-12-18T07:09:48.379Z,-8.49
2022-12-18T07:10:52.816Z,-8.47
2022-12-18T07:11:49.349Z,-8.47
2022-12-18T07:12:48.346Z,-8.50
2022-12-18T07:13:48.355Z,-8.49
2022-12-18T07:14:48.404Z,-8.44
2022-12-18T07:15:48.328Z,-8.46
2022-12-18T07:16:48.369Z,-8.47
2022-12-18T07:17:48.299Z,-8.49
2022-12-18T07:18:48.298Z,-8.47
2022-12-18T07:19:48.276Z,-8.46
2022-12-18T07:20:48.288Z,-8.47
2022-12-18T07:21:48.258Z,-8.46
2022-12-18T07:22:52.061Z,-8.46
2022-12-18T07:23:49.597Z,-8.42
2022-12-18T07:24:48.234Z,-8.47
2022-12-18T07:25:48.215Z,-8.44
2022-12-18T07:26:48.224Z,-8.44
2022-12-18T07:27:48.465Z,-8.47
2022-12-18T07:28:48.198Z,-8.42
2022-12-18T07:29:48.187Z,-8.44
2022-12-18T07:30:48.197Z,-8.46
2022-12-18T07:31:48.201Z,-8.41
2022-12-18T07:32:48.156Z,-8.39
2022-12-18T07:33:48.139Z,-8.41
2022-12-18T07:34:48.154Z,-8.38
2022-12-18T07:35:48.122Z,-8.39
2022-12-18T07:36:48.110Z,-8.39
2022-12-18T07:37:48.151Z,-8.39
2022-12-18T07:38:48.092Z,-8.39
2022-12-18T07:39:48.081Z,-8.38
2022-12-18T07:40:48.084Z,-8.35
2022-12-18T07:41:48.076Z,-8.32
2022-12-18T07:42:48.060Z,-8.39
2022-12-18T07:43:48.056Z,-8.36
2022-12-18T07:44:48.038Z,-8.41
2022-12-18T07:45:48.070Z,-8.35
2022-12-18T07:46:48.030Z,-8.38
2022-12-18T07:47:48.089Z,-8.35
2022-12-18T07:48:49.404Z,-8.36
2022-12-18T07:49:48.029Z,-8.35
2022-12-18T07:50:47.986Z,-8.32
2022-12-18T07:51:47.984Z,-8.32
2022-12-18T07:52:47.956Z,-8.29
2022-12-18T07:53:51.794Z,-8.29
2022-12-18T07:54:47.937Z,-8.29
2022-12-18T07:56:25.050Z,-8.23
2022-12-18T07:56:48.925Z,-8.24
2022-12-18T07:57:51.262Z,-8.23
2022-12-18T07:58:47.895Z,-8.20
2022-12-18T07:59:47.900Z,-8.20
2022-12-18T08:00:47.908Z,-8.17
2022-12-18T08:01:47.971Z,-8.17
2022-12-18T08:02:48.000Z,-8.15
2022-12-18T08:03:47.891Z,-8.14
2022-12-18T08:04:47.834Z,-8.14
2022-12-18T08:05:47.844Z,-8.13
2022-12-18T08:06:48.487Z,-8.13
2022-12-18T08:07:47.815Z,-8.07
2022-12-18T08:08:47.852Z,-8.07
2022-12-18T08:09:47.794Z,-8.05
2022-12-18T08:10:47.786Z,-8.03
2022-12-18T08:11:47.783Z,-7.96
2022-12-18T08:12:47.831Z,-7.95
2022-12-18T08:13:47.793Z,-7.92
2022-12-18T08:14:47.762Z,-7.92
2022-12-18T08:15:47.761Z,-7.91
2022-12-18T08:16:47.781Z,-7.85
2022-12-18T08:17:47.728Z,-7.84
2022-12-18T08:18:47.702Z,-7.81
2022-12-18T08:19:47.702Z,-7.78
2022-12-18T08:20:47.690Z,-7.77
2022-12-18T08:21:47.720Z,-7.74
2022-12-18T08:22:47.712Z,-7.74
2022-12-18T08:23:47.948Z,-7.70
2022-12-18T08:24:47.652Z,-7.67
2022-12-18T08:25:47.641Z,-7.64
2022-12-18T08:27:06.693Z,-7.64
2022-12-18T08:27:48.762Z,-7.60
2022-12-18T08:28:47.642Z,-7.55
2022-12-18T08:29:47.617Z,-7.55
2022-12-18T08:30:47.658Z,-7.53
2022-12-18T08:31:47.607Z,-7.52
2022-12-18T08:32:47.630Z,-7.48
2022-12-18T08:33:47.577Z,-7.45
2022-12-18T08:34:47.563Z,-7.45
2022-12-18T08:35:47.549Z,-7.44
2022-12-18T08:36:47.537Z,-7.41
2022-12-18T08:37:47.558Z,-7.36
2022-12-18T08:38:47.543Z,-7.35
2022-12-18T08:39:47.524Z,-7.35
2022-12-18T08:40:47.504Z,-7.28
2022-12-18T08:41:47.549Z,-7.25
2022-12-18T08:42:47.473Z,-7.24
2022-12-18T08:43:47.474Z,-7.20
2022-12-18T08:44:47.493Z,-7.21
2022-12-18T08:45:47.544Z,-7.17
2022-12-18T08:46:47.446Z,-7.15
2022-12-18T08:47:47.425Z,-7.10
2022-12-18T08:48:47.433Z,-7.06
2022-12-18T08:49:47.415Z,-7.03
2022-12-18T08:50:47.392Z,-7.02
2022-12-18T08:51:47.401Z,-6.97
2022-12-18T08:52:47.410Z,-6.95
2022-12-18T08:53:47.408Z,-6.91
2022-12-18T08:54:47.351Z,-6.86
2022-12-18T08:55:50.375Z,-6.82
2022-12-18T08:56:47.355Z,-6.82
2022-12-18T08:57:47.336Z,-6.78
2022-12-18T08:58:47.322Z,-6.73
2022-12-18T08:59:47.321Z,-6.70
2022-12-18T09:00:47.312Z,-6.68
2022-12-18T09:01:47.431Z,-6.68
2022-12-18T09:02:47.423Z,-6.66
2022-12-18T09:03:47.294Z,-6.67
2022-12-18T09:04:49.149Z,-6.64
2022-12-18T09:05:48.258Z,-6.64
2022-12-18T09:06:47.248Z,-6.66
2022-12-18T09:07:47.238Z,-6.66
2022-12-18T09:08:47.242Z,-6.66
2022-12-18T09:09:47.212Z,-6.61
2022-12-18T09:10:47.224Z,-6.64
2022-12-18T09:11:47.196Z,-6.63
2022-12-18T09:12:47.205Z,-6.60
2022-12-18T09:13:47.176Z,-6.61
2022-12-18T09:14:47.219Z,-6.60
2022-12-18T09:15:47.158Z,-6.56
2022-12-18T09:16:47.215Z,-6.58
2022-12-18T09:17:47.148Z,-6.52
2022-12-18T09:18:47.135Z,-6.48
2022-12-18T09:19:47.139Z,-6.46
2022-12-18T09:20:47.127Z,-6.46
2022-12-18T09:21:48.508Z,-6.42
2022-12-18T09:22:47.115Z,-6.39
2022-12-18T09:23:47.151Z,-6.34
2022-12-18T09:24:47.083Z,-6.30
2022-12-18T09:25:47.074Z,-6.28
2022-12-18T09:26:47.716Z,-6.27
2022-12-18T09:27:47.973Z,-6.24
2022-12-18T09:28:47.041Z,-6.26
2022-12-18T09:29:47.020Z,-6.24
2022-12-18T09:30:47.077Z,-6.24
2022-12-18T09:31:47.001Z,-6.20
2022-12-18T09:32:47.033Z,-6.18
2022-12-18T09:33:47.001Z,-6.12
2022-12-18T09:34:46.973Z,-6.12
2022-12-18T09:35:47.005Z,-6.12
2022-12-18T09:36:47.424Z,-6.13
2022-12-18T09:37:46.982Z,-6.07
2022-12-18T09:38:46.928Z,-6.07
2022-12-18T09:39:46.938Z,-6.05
2022-12-18T09:40:46.945Z,-6.03
2022-12-18T09:41:46.928Z,-6.00
2022-12-18T09:42:46.959Z,-5.99
2022-12-18T09:43:46.888Z,-5.99
2022-12-18T09:44:46.891Z,-6.00
2022-12-18T09:45:47.023Z,-5.92
2022-12-18T09:46:46.935Z,-5.91
2022-12-18T09:47:46.879Z,-5.88
2022-12-18T09:48:46.827Z,-5.85
2022-12-18T09:49:46.841Z,-5.84
2022-12-18T09:50:46.818Z,-5.78
2022-12-18T09:51:46.795Z,-5.74
2022-12-18T09:52:46.875Z,-5.70
2022-12-18T09:53:46.848Z,-5.68
2022-12-18T09:54:46.788Z,-5.64
2022-12-18T09:55:46.776Z,-5.58
2022-12-18T09:56:46.772Z,-5.56
2022-12-18T09:57:46.815Z,-5.52
2022-12-18T09:58:46.733Z,-5.46
2022-12-18T09:59:46.725Z,-5.38
2022-12-18T10:00:46.727Z,-5.31
2022-12-18T10:01:47.430Z,-5.27
2022-12-18T10:02:46.928Z,-5.21
2022-12-18T10:03:46.720Z,-5.13
2022-12-18T10:04:46.713Z,-5.09
2022-12-18T10:05:46.665Z,-5.01
2022-12-18T10:06:46.671Z,-4.97
2022-12-18T10:07:46.702Z,-4.91
2022-12-18T10:08:46.770Z,-4.91
2022-12-18T10:09:46.676Z,-4.81
2022-12-18T10:10:46.623Z,-4.84
2022-12-18T10:11:46.622Z,-4.80
2022-12-18T10:12:46.671Z,-4.79
2022-12-18T10:13:46.591Z,-4.76
2022-12-18T10:14:46.570Z,-4.73
2022-12-18T10:15:46.620Z,-4.70
2022-12-18T10:16:46.590Z,-4.67
2022-12-18T10:17:46.551Z,-4.65
2022-12-18T10:18:46.537Z,-4.61
2022-12-18T10:19:46.546Z,-4.58
2022-12-18T10:20:46.527Z,-4.56
2022-12-18T10:21:46.562Z,-4.49
2022-12-18T10:22:46.489Z,-4.45
2022-12-18T10:23:48.408Z,-4.44
2022-12-18T10:24:46.480Z,-4.35
2022-12-18T10:25:46.469Z,-4.34
2022-12-18T10:26:46.460Z,-4.33
2022-12-18T10:27:46.468Z,-4.30
2022-12-18T10:28:46.445Z,-4.30
2022-12-18T10:29:46.466Z,-4.22
2022-12-18T10:30:46.465Z,-4.16
2022-12-18T10:31:46.406Z,-4.13
2022-12-18T10:32:46.392Z,-4.08
2022-12-18T10:33:46.407Z,-4.05
2022-12-18T10:34:46.405Z,-4.02
2022-12-18T10:35:46.366Z,-3.96
2022-12-18T10:36:46.357Z,-3.91
2022-12-18T10:37:46.351Z,-3.88
2022-12-18T10:38:46.349Z,-3.85
2022-12-18T10:39:46.323Z,-3.81
2022-12-18T10:40:46.333Z,-3.74
2022-12-18T10:41:46.306Z,-3.71
2022-12-18T10:42:46.284Z,-3.68
2022-12-18T10:43:46.302Z,-3.62
2022-12-18T10:44:46.262Z,-3.59
2022-12-18T10:45:46.336Z,-3.56
2022-12-18T10:46:46.345Z,-3.53
2022-12-18T10:47:46.249Z,-3.51
2022-12-18T10:48:46.241Z,-3.46
2022-12-18T10:49:46.228Z,-3.38
2022-12-18T10:51:10.242Z,-3.33
2022-12-18T10:51:47.217Z,-3.32
2022-12-18T10:52:48.141Z,-3.27
2022-12-18T10:53:46.199Z,-3.22
2022-12-18T10:54:46.181Z,-3.20
2022-12-18T10:55:46.169Z,-3.14
2022-12-18T10:56:46.370Z,-3.11
2022-12-18T10:57:46.200Z,-3.07
2022-12-18T10:58:46.706Z,-3.02
2022-12-18T10:59:46.148Z,-2.98
2022-12-18T11:00:46.163Z,-2.99
2022-12-18T11:01:46.268Z,-2.91
2022-12-18T11:02:46.359Z,-2.89
2022-12-18T11:03:46.212Z,-2.84
2022-12-18T11:04:46.145Z,-2.84
2022-12-18T11:05:46.074Z,-2.78
2022-12-18T11:06:46.048Z,-2.76
2022-12-18T11:07:46.035Z,-2.72
2022-12-18T11:08:46.037Z,-2.70
2022-12-18T11:09:46.018Z,-2.68
2022-12-18T11:10:46.017Z,-2.63
2022-12-18T11:11:45.996Z,-2.63
2022-12-18T11:12:45.985Z,-2.55
2022-12-18T11:13:46.057Z,-2.54
2022-12-18T11:14:47.428Z,-2.52
2022-12-18T11:15:46.022Z,-2.47
2022-12-18T11:17:03.241Z,-2.44
2022-12-18T11:17:46.937Z,-2.44
2022-12-18T11:18:45.945Z,-2.44
2022-12-18T11:19:45.922Z,-2.34
2022-12-18T11:20:45.914Z,-2.32
2022-12-18T11:21:45.921Z,-2.32
2022-12-18T11:22:45.875Z,-2.28
2022-12-18T11:23:45.864Z,-2.25
2022-12-18T11:25:02.238Z,-2.23
2022-12-18T11:25:46.846Z,-2.18
2022-12-18T11:26:45.853Z,-2.20
2022-12-18T11:27:46.691Z,-2.15
2022-12-18T11:28:46.036Z,-2.14
2022-12-18T11:29:46.850Z,-2.11
2022-12-18T11:30:45.803Z,-2.10
2022-12-18T11:31:45.815Z,-2.07
2022-12-18T11:32:45.785Z,-2.04
2022-12-18T11:33:58.692Z,-2.05
2022-12-18T11:34:46.769Z,-2.00
2022-12-18T11:35:45.750Z,-1.97
2022-12-18T11:36:45.737Z,-1.97
2022-12-18T11:37:45.738Z,-1.96
2022-12-18T11:38:45.718Z,-1.97
2022-12-18T11:39:45.713Z,-1.92
2022-12-18T11:40:45.690Z,-1.89
2022-12-18T11:41:45.683Z,-1.89
2022-12-18T11:42:45.669Z,-1.87
2022-12-18T11:43:45.668Z,-1.84
2022-12-18T11:44:45.823Z,-1.86
2022-12-18T11:45:45.638Z,-1.84
2022-12-18T11:46:45.671Z,-1.84
2022-12-18T11:47:45.633Z,-1.79
2022-12-18T11:48:45.609Z,-1.81
2022-12-18T11:49:45.620Z,-1.82
2022-12-18T11:50:45.588Z,-1.78
2022-12-18T11:51:45.622Z,-1.78
2022-12-18T11:52:45.571Z,-1.78
2022-12-18T11:53:45.556Z,-1.76
2022-12-18T11:54:45.578Z,-1.75
2022-12-18T11:55:45.536Z,-1.74
2022-12-18T11:56:45.532Z,-1.74
2022-12-18T11:57:45.518Z,-1.69
2022-12-18T11:58:45.617Z,-1.71
2022-12-18T11:59:45.526Z,-1.63
2022-12-18T12:00:45.496Z,-1.64
2022-12-18T12:01:45.612Z,-1.60
2022-12-18T12:02:45.571Z,-1.58
2022-12-18T12:03:45.728Z,-1.58
2022-12-18T12:04:45.466Z,-1.56
2022-12-18T12:05:45.509Z,-1.53
2022-12-18T12:06:45.525Z,-1.51
2022-12-18T12:07:45.513Z,-1.50
2022-12-18T12:08:45.497Z,-1.48
2022-12-18T12:09:45.563Z,-1.50
2022-12-18T12:10:45.443Z,-1.42
2022-12-18T12:11:45.424Z,-1.42
2022-12-18T12:12:48.726Z,-1.42
2022-12-18T12:13:45.455Z,-1.40
2022-12-18T12:14:45.450Z,-1.38
2022-12-18T12:15:45.403Z,-1.36
2022-12-18T12:16:45.494Z,-1.33
2022-12-18T12:17:45.371Z,-1.36
2022-12-18T12:18:45.371Z,-1.35
2022-12-18T12:19:45.428Z,-1.32
2022-12-18T12:20:45.340Z,-1.30
2022-12-18T12:21:45.464Z,-1.29
2022-12-18T12:22:45.316Z,-1.30
2022-12-18T12:23:45.900Z,-1.25
2022-12-18T12:24:45.347Z,-1.27
2022-12-18T12:25:45.293Z,-1.27
2022-12-18T12:26:45.279Z,-1.29
2022-12-18T12:27:45.709Z,-1.29
2022-12-18T12:28:45.275Z,-1.29
2022-12-18T12:29:45.236Z,-1.27
2022-12-18T12:30:45.254Z,-1.25
2022-12-18T12:31:45.332Z,-1.22
2022-12-18T12:32:45.208Z,-1.24
2022-12-18T12:33:45.218Z,-1.22
2022-12-18T12:34:45.188Z,-1.19
2022-12-18T12:35:45.212Z,-1.19
2022-12-18T12:36:45.148Z,-1.17
2022-12-18T12:37:45.147Z,-1.17
2022-12-18T12:38:51.415Z,-1.17
2022-12-18T12:39:46.117Z,-1.15
2022-12-18T12:40:57.091Z,-1.18
2022-12-18T12:41:46.139Z,-1.17
2022-12-18T12:42:45.099Z,-1.19
2022-12-18T12:44:48.117Z,-1.18
2022-12-18T12:45:46.096Z,-1.15
2022-12-18T12:46:45.175Z,-1.15
2022-12-18T12:47:45.087Z,-1.15
2022-12-18T12:48:45.084Z,-1.15
2022-12-18T12:49:45.014Z,-1.19
2022-12-18T12:50:45.016Z,-1.15
2022-12-18T12:51:44.974Z,-1.14
2022-12-18T12:52:44.970Z,-1.14
2022-12-18T12:53:45.546Z,-1.17